MHC weather

Mocopulli Airport
Dalcahue, Los Lagos Region, Chile

Public forecast

Using degrees Celsius for public forecast. Weather courtesy of forecast.io.

Current aviation weather report (METAR) for Mocopulli Airport

Retrieved 2019/10/21 14:00 UTC (10 minutes ago):

SCPQ 211400Z 18007KT 150V210 9999 SCT040 10/02 Q1028

Aviation forecast (TAF) for Mocopulli Airport

Retrieved 2019/10/21 12:00 UTC (2 hours ago):

TAF SCPQ 211030Z 2112/2124 22005KT 9999 SCT030 BKN040 TN05/2112Z TX13/2118Z BECMG 2118/2120 15007KT SCT035